LVS073 SAZM-SADF
Flight info
| Callsign | LVS073 |
|---|---|
| Flight time | 2h 21m |
| Altitude | 9000 |
| Route | MDP W31 PTA/N0111F060 DCT ILM DCT PAL DCT TRINI |
| Aircraft | BR23/L-SFG/C |
Departure
| Time | 2026-04-24 22:20 |
|---|---|
| Airport | Ástor Piazzola International Airport (SAZM) |
Arrival
| Time | 2026-04-25 00:42 |
|---|---|
| Airport | San Fernando Airport (SADF) |
| Time | Latitude | Longitude | Altitude | Speed | Heading |
|---|---|---|---|---|---|
| 2026-04-24 22:03 | -37.93223 | -57.58095 | 48 ft | 0 kts | 299° |
| 2026-04-24 22:10 | -37.93222 | -57.58098 | 48 ft | 1 kts | 255° |
| 2026-04-24 22:11 | -37.93231 | -57.58101 | 48 ft | 2 kts | 143° |
| 2026-04-24 22:11 | -37.93233 | -57.58097 | 48 ft | 0 kts | 110° |
| 2026-04-24 22:11 | -37.93234 | -57.58093 | 48 ft | 4 kts | 92° |
| 2026-04-24 22:11 | -37.93254 | -57.58046 | 48 ft | 6 kts | 149° |
| 2026-04-24 22:12 | -37.93284 | -57.58028 | 48 ft | 4 kts | 156° |
| 2026-04-24 22:12 | -37.93318 | -57.58022 | 48 ft | 7 kts | 180° |
| 2026-04-24 22:12 | -37.93369 | -57.58003 | 48 ft | 10 kts | 122° |
| 2026-04-24 22:12 | -37.93406 | -57.57920 | 48 ft | 11 kts | 120° |
| 2026-04-24 22:13 | -37.93438 | -57.57847 | 48 ft | 8 kts | 120° |
| 2026-04-24 22:13 | -37.93463 | -57.57792 | 48 ft | 6 kts | 119° |
| 2026-04-24 22:13 | -37.93480 | -57.57752 | 48 ft | 5 kts | 118° |
| 2026-04-24 22:13 | -37.93506 | -57.57694 | 48 ft | 11 kts | 120° |
| 2026-04-24 22:14 | -37.93551 | -57.57592 | 48 ft | 16 kts | 119° |
| 2026-04-24 22:14 | -37.93613 | -57.57452 | 48 ft | 20 kts | 119° |
| 2026-04-24 22:14 | -37.93681 | -57.57296 | 48 ft | 18 kts | 116° |
| 2026-04-24 22:14 | -37.93736 | -57.57176 | 48 ft | 14 kts | 120° |
| 2026-04-24 22:15 | -37.93778 | -57.57079 | 48 ft | 12 kts | 117° |
| 2026-04-24 22:15 | -37.93843 | -57.56933 | 48 ft | 25 kts | 118° |
| 2026-04-24 22:15 | -37.93940 | -57.56712 | 48 ft | 29 kts | 119° |
| 2026-04-24 22:15 | -37.94029 | -57.56509 | 48 ft | 19 kts | 116° |
| 2026-04-24 22:16 | -37.94011 | -57.56403 | 48 ft | 1 kts | 64° |
| 2026-04-24 22:18 | -37.94002 | -57.56384 | 48 ft | 8 kts | 58° |
| 2026-04-24 22:19 | -37.93944 | -57.56327 | 47 ft | 9 kts | 343° |
| 2026-04-24 22:19 | -37.93917 | -57.56345 | 47 ft | 0 kts | 302° |
| 2026-04-24 22:19 | -37.93821 | -57.56537 | 49 ft | 54 kts | 301° |
| 2026-04-24 22:20 | -37.93572 | -57.57031 | 128 ft | 73 kts | 307° |
| 2026-04-24 22:20 | -37.93296 | -57.57581 | 302 ft | 73 kts | 307° |
| 2026-04-24 22:20 | -37.93024 | -57.58097 | 512 ft | 69 kts | 304° |
| 2026-04-24 22:20 | -37.92750 | -57.58650 | 684 ft | 73 kts | 307° |
| 2026-04-24 22:21 | -37.92402 | -57.59060 | 897 ft | 70 kts | 334° |
| 2026-04-24 22:21 | -37.91924 | -57.59170 | 1129 ft | 69 kts | 351° |
| 2026-04-24 22:21 | -37.91455 | -57.59220 | 1364 ft | 67 kts | 347° |
| 2026-04-24 22:21 | -37.90996 | -57.59267 | 1594 ft | 67 kts | 345° |
| 2026-04-24 22:22 | -37.90534 | -57.59313 | 1819 ft | 66 kts | 344° |
| 2026-04-24 22:22 | -37.90072 | -57.59360 | 2033 ft | 67 kts | 344° |
| 2026-04-24 22:22 | -37.89599 | -57.59407 | 2240 ft | 69 kts | 344° |
| 2026-04-24 22:22 | -37.89112 | -57.59454 | 2444 ft | 70 kts | 343° |
| 2026-04-24 22:23 | -37.88618 | -57.59503 | 2642 ft | 72 kts | 345° |
| 2026-04-24 22:23 | -37.88116 | -57.59553 | 2834 ft | 73 kts | 344° |
| 2026-04-24 22:23 | -37.87605 | -57.59602 | 3022 ft | 74 kts | 344° |
| 2026-04-24 22:23 | -37.87087 | -57.59653 | 3215 ft | 75 kts | 344° |
| 2026-04-24 22:24 | -37.86560 | -57.59705 | 3405 ft | 76 kts | 343° |
| 2026-04-24 22:24 | -37.86036 | -57.59755 | 3589 ft | 76 kts | 343° |
| 2026-04-24 22:24 | -37.85505 | -57.59806 | 3784 ft | 77 kts | 342° |
| 2026-04-24 22:24 | -37.84973 | -57.59858 | 3965 ft | 77 kts | 342° |
| 2026-04-24 22:25 | -37.84440 | -57.59910 | 4147 ft | 77 kts | 342° |
| 2026-04-24 22:25 | -37.83906 | -57.59962 | 4327 ft | 77 kts | 341° |
| 2026-04-24 22:25 | -37.83400 | -57.60011 | 4496 ft | 77 kts | 341° |
| 2026-04-24 22:25 | -37.82871 | -57.60063 | 4672 ft | 78 kts | 341° |
| 2026-04-24 22:26 | -37.82334 | -57.60115 | 4849 ft | 77 kts | 341° |
| 2026-04-24 22:26 | -37.81796 | -57.60167 | 5016 ft | 77 kts | 340° |
| 2026-04-24 22:26 | -37.81259 | -57.60219 | 5181 ft | 77 kts | 340° |
| 2026-04-24 22:26 | -37.80722 | -57.60271 | 5348 ft | 77 kts | 340° |
| 2026-04-24 22:27 | -37.80185 | -57.60323 | 5509 ft | 77 kts | 340° |
| 2026-04-24 22:27 | -37.79648 | -57.60376 | 5674 ft | 77 kts | 340° |
| 2026-04-24 22:27 | -37.79109 | -57.60428 | 5842 ft | 78 kts | 339° |
| 2026-04-24 22:27 | -37.78569 | -57.60481 | 5985 ft | 78 kts | 339° |
| 2026-04-24 22:28 | -37.78029 | -57.60534 | 6144 ft | 78 kts | 339° |
| 2026-04-24 22:28 | -37.77482 | -57.60587 | 6292 ft | 79 kts | 339° |
| 2026-04-24 22:28 | -37.76941 | -57.60639 | 6431 ft | 79 kts | 339° |
| 2026-04-24 22:28 | -37.76391 | -57.60693 | 6576 ft | 80 kts | 339° |
| 2026-04-24 22:29 | -37.75284 | -57.60800 | 6851 ft | 80 kts | 339° |
| 2026-04-24 22:29 | -37.74729 | -57.60854 | 6984 ft | 80 kts | 339° |
| 2026-04-24 22:29 | -37.74172 | -57.60908 | 7119 ft | 80 kts | 339° |
| 2026-04-24 22:30 | -37.73611 | -57.60963 | 7250 ft | 81 kts | 339° |
| 2026-04-24 22:30 | -37.73048 | -57.61018 | 7378 ft | 81 kts | 339° |
| 2026-04-24 22:30 | -37.72484 | -57.61072 | 7504 ft | 81 kts | 339° |
| 2026-04-24 22:30 | -37.71917 | -57.61127 | 7633 ft | 82 kts | 339° |
| 2026-04-24 22:31 | -37.71349 | -57.61182 | 7756 ft | 82 kts | 339° |
| 2026-04-24 22:31 | -37.70778 | -57.61237 | 7889 ft | 82 kts | 340° |
| 2026-04-24 22:31 | -37.70208 | -57.61293 | 8001 ft | 82 kts | 339° |
| 2026-04-24 22:31 | -37.69635 | -57.61348 | 8119 ft | 82 kts | 339° |
| 2026-04-24 22:32 | -37.69069 | -57.61404 | 8231 ft | 83 kts | 339° |
| 2026-04-24 22:32 | -37.68491 | -57.61460 | 8346 ft | 83 kts | 339° |
| 2026-04-24 22:32 | -37.67914 | -57.61516 | 8457 ft | 83 kts | 339° |
| 2026-04-24 22:32 | -37.67336 | -57.61571 | 8568 ft | 83 kts | 339° |
| 2026-04-24 22:33 | -37.66756 | -57.61628 | 8677 ft | 84 kts | 339° |
| 2026-04-24 22:33 | -37.66175 | -57.61684 | 8781 ft | 84 kts | 339° |
| 2026-04-24 22:33 | -37.65592 | -57.61741 | 8890 ft | 84 kts | 339° |
| 2026-04-24 22:33 | -37.65006 | -57.61797 | 8993 ft | 84 kts | 339° |
| 2026-04-24 22:34 | -37.64614 | -57.61837 | 9029 ft | 88 kts | 340° |
| 2026-04-24 22:34 | -37.63979 | -57.61900 | 9047 ft | 94 kts | 341° |
| 2026-04-24 22:34 | -37.63310 | -57.61964 | 9047 ft | 98 kts | 342° |
| 2026-04-24 22:34 | -37.62622 | -57.62029 | 9047 ft | 99 kts | 342° |
| 2026-04-24 22:35 | -37.61929 | -57.62095 | 9045 ft | 100 kts | 342° |
| 2026-04-24 22:35 | -37.61233 | -57.62161 | 9034 ft | 100 kts | 342° |
| 2026-04-24 22:35 | -37.60536 | -57.62228 | 9047 ft | 101 kts | 342° |
| 2026-04-24 22:35 | -37.59831 | -57.62297 | 9045 ft | 102 kts | 342° |
| 2026-04-24 22:36 | -37.59127 | -57.62364 | 9043 ft | 101 kts | 342° |
| 2026-04-24 22:36 | -37.58433 | -57.62430 | 9043 ft | 100 kts | 342° |
| 2026-04-24 22:36 | -37.57738 | -57.62497 | 9046 ft | 99 kts | 341° |
| 2026-04-24 22:36 | -37.57048 | -57.62565 | 9048 ft | 99 kts | 341° |
| 2026-04-24 22:37 | -37.56358 | -57.62632 | 9044 ft | 100 kts | 341° |
| 2026-04-24 22:37 | -37.55675 | -57.62698 | 9045 ft | 99 kts | 341° |
| 2026-04-24 22:37 | -37.54986 | -57.62765 | 9042 ft | 99 kts | 341° |
| 2026-04-24 22:37 | -37.54294 | -57.62832 | 9044 ft | 100 kts | 341° |
| 2026-04-24 22:38 | -37.53602 | -57.62898 | 9045 ft | 100 kts | 341° |
| 2026-04-24 22:38 | -37.52909 | -57.62965 | 9047 ft | 100 kts | 341° |
| 2026-04-24 22:38 | -37.52217 | -57.63033 | 9045 ft | 100 kts | 341° |
| 2026-04-24 22:38 | -37.51522 | -57.63100 | 9040 ft | 100 kts | 341° |
| 2026-04-24 22:39 | -37.50827 | -57.63166 | 9044 ft | 100 kts | 341° |
| 2026-04-24 22:39 | -37.50133 | -57.63233 | 9042 ft | 100 kts | 341° |
| 2026-04-24 22:39 | -37.49440 | -57.63301 | 9045 ft | 100 kts | 341° |
| 2026-04-24 22:39 | -37.48746 | -57.63367 | 9046 ft | 100 kts | 341° |
| 2026-04-24 22:40 | -37.48061 | -57.63434 | 9044 ft | 100 kts | 341° |
| 2026-04-24 22:40 | -37.47368 | -57.63501 | 9045 ft | 100 kts | 341° |
| 2026-04-24 22:40 | -37.46672 | -57.63567 | 9047 ft | 100 kts | 341° |
| 2026-04-24 22:40 | -37.45979 | -57.63634 | 9048 ft | 100 kts | 341° |
| 2026-04-24 22:41 | -37.45283 | -57.63702 | 9049 ft | 100 kts | 341° |
| 2026-04-24 22:41 | -37.44587 | -57.63769 | 9047 ft | 100 kts | 341° |
| 2026-04-24 22:41 | -37.43890 | -57.63836 | 9050 ft | 100 kts | 341° |
| 2026-04-24 22:41 | -37.43195 | -57.63903 | 9045 ft | 100 kts | 341° |
| 2026-04-24 22:42 | -37.42497 | -57.63971 | 9048 ft | 100 kts | 341° |
| 2026-04-24 22:42 | -37.41807 | -57.64037 | 9049 ft | 100 kts | 341° |
| 2026-04-24 22:42 | -37.41110 | -57.64104 | 9046 ft | 101 kts | 341° |
| 2026-04-24 22:42 | -37.40412 | -57.64171 | 9046 ft | 101 kts | 341° |
| 2026-04-24 22:43 | -37.39713 | -57.64239 | 9046 ft | 101 kts | 341° |
| 2026-04-24 22:43 | -37.39013 | -57.64306 | 9047 ft | 101 kts | 341° |
| 2026-04-24 22:43 | -37.38314 | -57.64373 | 9045 ft | 101 kts | 341° |
| 2026-04-24 22:43 | -37.37615 | -57.64441 | 9048 ft | 101 kts | 341° |
| 2026-04-24 22:44 | -37.36917 | -57.64507 | 9044 ft | 100 kts | 341° |
| 2026-04-24 22:44 | -37.36221 | -57.64574 | 9049 ft | 100 kts | 341° |
| 2026-04-24 22:44 | -37.35523 | -57.64642 | 9048 ft | 100 kts | 341° |
| 2026-04-24 22:44 | -37.34826 | -57.64709 | 9045 ft | 100 kts | 340° |
| 2026-04-24 22:45 | -37.34127 | -57.64776 | 9044 ft | 101 kts | 341° |
| 2026-04-24 22:45 | -37.33428 | -57.64843 | 9045 ft | 101 kts | 341° |
| 2026-04-24 22:45 | -37.32738 | -57.64910 | 9042 ft | 101 kts | 340° |
| 2026-04-24 22:45 | -37.32037 | -57.64977 | 9042 ft | 101 kts | 340° |
| 2026-04-24 22:46 | -37.31338 | -57.65044 | 9043 ft | 101 kts | 341° |
| 2026-04-24 22:46 | -37.30636 | -57.65112 | 9042 ft | 101 kts | 341° |
| 2026-04-24 22:46 | -37.29935 | -57.65179 | 9041 ft | 101 kts | 340° |
| 2026-04-24 22:46 | -37.29234 | -57.65246 | 9042 ft | 101 kts | 341° |
| 2026-04-24 22:47 | -37.28533 | -57.65314 | 9044 ft | 101 kts | 341° |
| 2026-04-24 22:47 | -37.27831 | -57.65381 | 9040 ft | 101 kts | 341° |
| 2026-04-24 22:47 | -37.27126 | -57.65449 | 9039 ft | 101 kts | 341° |
| 2026-04-24 22:47 | -37.26420 | -57.65517 | 9043 ft | 102 kts | 341° |
| 2026-04-24 22:48 | -37.25714 | -57.65584 | 9038 ft | 101 kts | 341° |
| 2026-04-24 22:48 | -37.25009 | -57.65652 | 9038 ft | 101 kts | 341° |
| 2026-04-24 22:48 | -37.24305 | -57.65719 | 9040 ft | 102 kts | 341° |
| 2026-04-24 22:48 | -37.23599 | -57.65788 | 9043 ft | 102 kts | 340° |
| 2026-04-24 22:49 | -37.22892 | -57.65855 | 9038 ft | 102 kts | 341° |
| 2026-04-24 22:49 | -37.22193 | -57.65922 | 9041 ft | 102 kts | 341° |
| 2026-04-24 22:49 | -37.21475 | -57.65991 | 9039 ft | 102 kts | 341° |
| 2026-04-24 22:49 | -37.20774 | -57.66058 | 9040 ft | 102 kts | 341° |
| 2026-04-24 22:50 | -37.20064 | -57.66126 | 9040 ft | 102 kts | 341° |
| 2026-04-24 22:50 | -37.19353 | -57.66194 | 9039 ft | 102 kts | 341° |
| 2026-04-24 22:50 | -37.18642 | -57.66262 | 9042 ft | 102 kts | 341° |
| 2026-04-24 22:50 | -37.17932 | -57.66330 | 9039 ft | 102 kts | 341° |
| 2026-04-24 22:51 | -37.17220 | -57.66398 | 9040 ft | 103 kts | 341° |
| 2026-04-24 22:51 | -37.16507 | -57.66467 | 9040 ft | 103 kts | 341° |
| 2026-04-24 22:51 | -37.15794 | -57.66535 | 9037 ft | 103 kts | 341° |
| 2026-04-24 22:51 | -37.15081 | -57.66603 | 9039 ft | 103 kts | 341° |
| 2026-04-24 22:52 | -37.14368 | -57.66671 | 9041 ft | 103 kts | 341° |
| 2026-04-24 22:52 | -37.13654 | -57.66739 | 9039 ft | 103 kts | 341° |
| 2026-04-24 22:52 | -37.12940 | -57.66808 | 9036 ft | 103 kts | 341° |
| 2026-04-24 22:52 | -37.12226 | -57.66876 | 9038 ft | 103 kts | 341° |
| 2026-04-24 22:53 | -37.11510 | -57.66944 | 9040 ft | 103 kts | 341° |
| 2026-04-24 22:53 | -37.10795 | -57.67013 | 9037 ft | 103 kts | 341° |
| 2026-04-24 22:53 | -37.10079 | -57.67082 | 9037 ft | 103 kts | 341° |
| 2026-04-24 22:53 | -37.09370 | -57.67149 | 9038 ft | 103 kts | 341° |
| 2026-04-24 22:54 | -37.08653 | -57.67218 | 9038 ft | 103 kts | 341° |
| 2026-04-24 22:54 | -37.07935 | -57.67286 | 9039 ft | 103 kts | 341° |
| 2026-04-24 22:54 | -37.07217 | -57.67354 | 9038 ft | 103 kts | 341° |
| 2026-04-24 22:54 | -37.06499 | -57.67423 | 9038 ft | 104 kts | 341° |
| 2026-04-24 22:55 | -37.05779 | -57.67492 | 9040 ft | 104 kts | 341° |
| 2026-04-24 22:55 | -37.05059 | -57.67561 | 9039 ft | 104 kts | 341° |
| 2026-04-24 22:55 | -37.04340 | -57.67629 | 9041 ft | 104 kts | 341° |
| 2026-04-24 22:55 | -37.03619 | -57.67698 | 9040 ft | 104 kts | 341° |
| 2026-04-24 22:56 | -37.02898 | -57.67767 | 9042 ft | 104 kts | 341° |
| 2026-04-24 22:56 | -37.02178 | -57.67835 | 9039 ft | 104 kts | 341° |
| 2026-04-24 22:56 | -37.01467 | -57.67903 | 9041 ft | 104 kts | 341° |
| 2026-04-24 22:56 | -37.00744 | -57.67972 | 9040 ft | 104 kts | 341° |
| 2026-04-24 22:57 | -37.00022 | -57.68041 | 9041 ft | 104 kts | 341° |
| 2026-04-24 22:57 | -36.99297 | -57.68111 | 9040 ft | 104 kts | 341° |
| 2026-04-24 22:57 | -36.98573 | -57.68190 | 9041 ft | 104 kts | 340° |
| 2026-04-24 22:57 | -36.97851 | -57.68267 | 9042 ft | 104 kts | 340° |
| 2026-04-24 22:58 | -36.97125 | -57.68345 | 9043 ft | 104 kts | 340° |
| 2026-04-24 22:58 | -36.96402 | -57.68423 | 9043 ft | 104 kts | 340° |
| 2026-04-24 22:58 | -36.95678 | -57.68501 | 9042 ft | 105 kts | 340° |
| 2026-04-24 22:58 | -36.94952 | -57.68579 | 9046 ft | 105 kts | 340° |
| 2026-04-24 22:59 | -36.94225 | -57.68657 | 9044 ft | 105 kts | 340° |
| 2026-04-24 22:59 | -36.93507 | -57.68734 | 9044 ft | 105 kts | 340° |
| 2026-04-24 22:59 | -36.92054 | -57.68888 | 9041 ft | 105 kts | 340° |
| 2026-04-24 23:00 | -36.91328 | -57.68967 | 9041 ft | 105 kts | 340° |
| 2026-04-24 23:00 | -36.90601 | -57.69044 | 9040 ft | 105 kts | 340° |
| 2026-04-24 23:00 | -36.89872 | -57.69122 | 9045 ft | 105 kts | 340° |
| 2026-04-24 23:00 | -36.89143 | -57.69201 | 9041 ft | 105 kts | 340° |
| 2026-04-24 23:01 | -36.88413 | -57.69279 | 9043 ft | 105 kts | 340° |
| 2026-04-24 23:01 | -36.87682 | -57.69356 | 9045 ft | 105 kts | 340° |
| 2026-04-24 23:01 | -36.86950 | -57.69435 | 9042 ft | 106 kts | 340° |
| 2026-04-24 23:01 | -36.86216 | -57.69514 | 9043 ft | 106 kts | 340° |
| 2026-04-24 23:02 | -36.85482 | -57.69591 | 9049 ft | 106 kts | 340° |
| 2026-04-24 23:02 | -36.84748 | -57.69670 | 9045 ft | 106 kts | 340° |
| 2026-04-24 23:02 | -36.84013 | -57.69749 | 9045 ft | 106 kts | 340° |
| 2026-04-24 23:02 | -36.83277 | -57.69827 | 9045 ft | 106 kts | 340° |
| 2026-04-24 23:03 | -36.82542 | -57.69906 | 9048 ft | 106 kts | 340° |
| 2026-04-24 23:03 | -36.81808 | -57.69984 | 9047 ft | 106 kts | 340° |
| 2026-04-24 23:03 | -36.81074 | -57.70062 | 9047 ft | 106 kts | 340° |
| 2026-04-24 23:03 | -36.80349 | -57.70140 | 9050 ft | 106 kts | 340° |
| 2026-04-24 23:04 | -36.79615 | -57.70218 | 9048 ft | 106 kts | 340° |
| 2026-04-24 23:04 | -36.78880 | -57.70297 | 9045 ft | 106 kts | 340° |
| 2026-04-24 23:04 | -36.78147 | -57.70374 | 9047 ft | 105 kts | 340° |
| 2026-04-24 23:04 | -36.77416 | -57.70453 | 9049 ft | 106 kts | 340° |
| 2026-04-24 23:05 | -36.76928 | -57.70505 | 9049 ft | 106 kts | 340° |
| 2026-04-24 23:05 | -36.75942 | -57.70610 | 9049 ft | 106 kts | 340° |
| 2026-04-24 23:05 | -36.75214 | -57.70687 | 9056 ft | 106 kts | 340° |
| 2026-04-24 23:05 | -36.74470 | -57.70767 | 9057 ft | 106 kts | 340° |
| 2026-04-24 23:06 | -36.73740 | -57.70844 | 9056 ft | 106 kts | 340° |
| 2026-04-24 23:06 | -36.73005 | -57.70923 | 9057 ft | 106 kts | 340° |
| 2026-04-24 23:06 | -36.72268 | -57.71002 | 9054 ft | 106 kts | 341° |
| 2026-04-24 23:06 | -36.71533 | -57.71079 | 9055 ft | 106 kts | 340° |
| 2026-04-24 23:07 | -36.70796 | -57.71158 | 9055 ft | 106 kts | 341° |
| 2026-04-24 23:07 | -36.70060 | -57.71237 | 9054 ft | 106 kts | 341° |
| 2026-04-24 23:07 | -36.69332 | -57.71314 | 9053 ft | 106 kts | 340° |
| 2026-04-24 23:07 | -36.68595 | -57.71392 | 9055 ft | 106 kts | 341° |
| 2026-04-24 23:08 | -36.67857 | -57.71471 | 9059 ft | 106 kts | 341° |
| 2026-04-24 23:08 | -36.67117 | -57.71550 | 9057 ft | 107 kts | 341° |
| 2026-04-24 23:08 | -36.66376 | -57.71628 | 9057 ft | 107 kts | 341° |
| 2026-04-24 23:08 | -36.65636 | -57.71707 | 9056 ft | 107 kts | 341° |
| 2026-04-24 23:09 | -36.64898 | -57.71785 | 9056 ft | 107 kts | 341° |
| 2026-04-24 23:09 | -36.64158 | -57.71864 | 9056 ft | 107 kts | 341° |
| 2026-04-24 23:09 | -36.63417 | -57.71943 | 9056 ft | 107 kts | 341° |
| 2026-04-24 23:09 | -36.62678 | -57.72021 | 9055 ft | 106 kts | 341° |
| 2026-04-24 23:10 | -36.61939 | -57.72099 | 9058 ft | 107 kts | 341° |
| 2026-04-24 23:10 | -36.61209 | -57.72177 | 9059 ft | 107 kts | 341° |
| 2026-04-24 23:10 | -36.60470 | -57.72256 | 9060 ft | 107 kts | 341° |
| 2026-04-24 23:10 | -36.59730 | -57.72334 | 9057 ft | 107 kts | 341° |
| 2026-04-24 23:11 | -36.58988 | -57.72413 | 9060 ft | 107 kts | 341° |
| 2026-04-24 23:11 | -36.58249 | -57.72492 | 9059 ft | 107 kts | 341° |
| 2026-04-24 23:11 | -36.57509 | -57.72570 | 9058 ft | 107 kts | 341° |
| 2026-04-24 23:11 | -36.56771 | -57.72648 | 9062 ft | 106 kts | 342° |
| 2026-04-24 23:12 | -36.56041 | -57.72726 | 9059 ft | 106 kts | 342° |
| 2026-04-24 23:12 | -36.55302 | -57.72804 | 9060 ft | 106 kts | 341° |
| 2026-04-24 23:12 | -36.54564 | -57.72882 | 9060 ft | 107 kts | 342° |
| 2026-04-24 23:12 | -36.53824 | -57.72961 | 9061 ft | 106 kts | 342° |
| 2026-04-24 23:13 | -36.53089 | -57.73038 | 9059 ft | 106 kts | 342° |
| 2026-04-24 23:13 | -36.52352 | -57.73116 | 9059 ft | 106 kts | 342° |
| 2026-04-24 23:13 | -36.51617 | -57.73195 | 9062 ft | 106 kts | 342° |
| 2026-04-24 23:13 | -36.50879 | -57.73272 | 9061 ft | 106 kts | 342° |
| 2026-04-24 23:14 | -36.50142 | -57.73350 | 9060 ft | 106 kts | 342° |
| 2026-04-24 23:14 | -36.49406 | -57.73429 | 9060 ft | 106 kts | 342° |
| 2026-04-24 23:14 | -36.48668 | -57.73506 | 9065 ft | 106 kts | 342° |
| 2026-04-24 23:14 | -36.47931 | -57.73584 | 9065 ft | 106 kts | 342° |
| 2026-04-24 23:15 | -36.47195 | -57.73663 | 9064 ft | 106 kts | 342° |
| 2026-04-24 23:15 | -36.46460 | -57.73741 | 9067 ft | 106 kts | 342° |
| 2026-04-24 23:15 | -36.45724 | -57.73818 | 9068 ft | 106 kts | 342° |
| 2026-04-24 23:15 | -36.44997 | -57.73895 | 9065 ft | 106 kts | 342° |
| 2026-04-24 23:16 | -36.44263 | -57.73973 | 9066 ft | 106 kts | 342° |
| 2026-04-24 23:16 | -36.43526 | -57.74050 | 9066 ft | 106 kts | 342° |
| 2026-04-24 23:16 | -36.42791 | -57.74128 | 9065 ft | 106 kts | 342° |
| 2026-04-24 23:16 | -36.42055 | -57.74206 | 9066 ft | 106 kts | 342° |
| 2026-04-24 23:17 | -36.41320 | -57.74283 | 9065 ft | 106 kts | 342° |
| 2026-04-24 23:17 | -36.40585 | -57.74361 | 9067 ft | 106 kts | 342° |
| 2026-04-24 23:17 | -36.39851 | -57.74439 | 9067 ft | 106 kts | 342° |
| 2026-04-24 23:17 | -36.39116 | -57.74516 | 9066 ft | 106 kts | 342° |
| 2026-04-24 23:18 | -36.38382 | -57.74593 | 9067 ft | 106 kts | 342° |
| 2026-04-24 23:18 | -36.37648 | -57.74671 | 9062 ft | 106 kts | 342° |
| 2026-04-24 23:18 | -36.36925 | -57.74748 | 9067 ft | 106 kts | 342° |
| 2026-04-24 23:18 | -36.36190 | -57.74825 | 9064 ft | 106 kts | 342° |
| 2026-04-24 23:19 | -36.35456 | -57.74902 | 9064 ft | 106 kts | 343° |
| 2026-04-24 23:19 | -36.34720 | -57.74980 | 9065 ft | 106 kts | 343° |
| 2026-04-24 23:19 | -36.33987 | -57.75057 | 9065 ft | 106 kts | 343° |
| 2026-04-24 23:19 | -36.33256 | -57.75134 | 9067 ft | 105 kts | 343° |
| 2026-04-24 23:20 | -36.32525 | -57.75212 | 9066 ft | 105 kts | 343° |
| 2026-04-24 23:20 | -36.31793 | -57.75288 | 9062 ft | 106 kts | 343° |
| 2026-04-24 23:20 | -36.31060 | -57.75366 | 9067 ft | 106 kts | 343° |
| 2026-04-24 23:20 | -36.30337 | -57.75442 | 9067 ft | 106 kts | 343° |
| 2026-04-24 23:21 | -36.29606 | -57.75519 | 9066 ft | 105 kts | 343° |
| 2026-04-24 23:21 | -36.28874 | -57.75596 | 9067 ft | 105 kts | 343° |
| 2026-04-24 23:21 | -36.28143 | -57.75673 | 9064 ft | 105 kts | 343° |
| 2026-04-24 23:21 | -36.27414 | -57.75749 | 9064 ft | 105 kts | 343° |
| 2026-04-24 23:22 | -36.26932 | -57.75801 | 9062 ft | 105 kts | 343° |
| 2026-04-24 23:22 | -36.26205 | -57.75877 | 9064 ft | 105 kts | 343° |
| 2026-04-24 23:22 | -36.25475 | -57.75953 | 9063 ft | 105 kts | 343° |
| 2026-04-24 23:22 | -36.24748 | -57.76030 | 9065 ft | 105 kts | 343° |
| 2026-04-24 23:23 | -36.24022 | -57.76107 | 9064 ft | 105 kts | 343° |
| 2026-04-24 23:23 | -36.23296 | -57.76183 | 9065 ft | 105 kts | 343° |
| 2026-04-24 23:23 | -36.22572 | -57.76259 | 9066 ft | 105 kts | 343° |
| 2026-04-24 23:23 | -36.21846 | -57.76336 | 9065 ft | 105 kts | 343° |
| 2026-04-24 23:24 | -36.21119 | -57.76411 | 9066 ft | 105 kts | 343° |
| 2026-04-24 23:24 | -36.20394 | -57.76488 | 9065 ft | 105 kts | 343° |
| 2026-04-24 23:24 | -36.19668 | -57.76564 | 9067 ft | 105 kts | 343° |
| 2026-04-24 23:24 | -36.18951 | -57.76639 | 9063 ft | 105 kts | 343° |
| 2026-04-24 23:25 | -36.18216 | -57.76716 | 9063 ft | 105 kts | 344° |
| 2026-04-24 23:25 | -36.17501 | -57.76792 | 9063 ft | 104 kts | 344° |
| 2026-04-24 23:25 | -36.16775 | -57.76868 | 9065 ft | 104 kts | 344° |
| 2026-04-24 23:25 | -36.16050 | -57.76944 | 9063 ft | 104 kts | 344° |
| 2026-04-24 23:26 | -36.15325 | -57.77020 | 9064 ft | 105 kts | 344° |
| 2026-04-24 23:26 | -36.14599 | -57.77097 | 9066 ft | 105 kts | 344° |
| 2026-04-24 23:26 | -36.13874 | -57.77172 | 9063 ft | 104 kts | 344° |
| 2026-04-24 23:26 | -36.13150 | -57.77248 | 9064 ft | 104 kts | 344° |
| 2026-04-24 23:27 | -36.12426 | -57.77324 | 9065 ft | 104 kts | 344° |
| 2026-04-24 23:27 | -36.11704 | -57.77400 | 9063 ft | 104 kts | 344° |
| 2026-04-24 23:27 | -36.10989 | -57.77475 | 9065 ft | 104 kts | 344° |
| 2026-04-24 23:27 | -36.10267 | -57.77551 | 9065 ft | 104 kts | 344° |
| 2026-04-24 23:28 | -36.09545 | -57.77626 | 9065 ft | 104 kts | 344° |
| 2026-04-24 23:28 | -36.08824 | -57.77701 | 9064 ft | 104 kts | 344° |
| 2026-04-24 23:28 | -36.08103 | -57.77777 | 9067 ft | 104 kts | 345° |
| 2026-04-24 23:28 | -36.07382 | -57.77853 | 9066 ft | 104 kts | 344° |
| 2026-04-24 23:29 | -36.06660 | -57.77928 | 9072 ft | 104 kts | 344° |
| 2026-04-24 23:29 | -36.05941 | -57.78003 | 9071 ft | 104 kts | 345° |
| 2026-04-24 23:29 | -36.05219 | -57.78079 | 9069 ft | 104 kts | 345° |
| 2026-04-24 23:29 | -36.04499 | -57.78155 | 9069 ft | 104 kts | 344° |
| 2026-04-24 23:30 | -36.03780 | -57.78229 | 9067 ft | 104 kts | 345° |
| 2026-04-24 23:30 | -36.03060 | -57.78305 | 9069 ft | 104 kts | 345° |
| 2026-04-24 23:30 | -36.02340 | -57.78380 | 9071 ft | 104 kts | 344° |
| 2026-04-24 23:30 | -36.01622 | -57.78455 | 9064 ft | 104 kts | 344° |
| 2026-04-24 23:31 | -36.00913 | -57.78529 | 9065 ft | 101 kts | 344° |
| 2026-04-24 23:31 | -36.00224 | -57.78601 | 9056 ft | 101 kts | 344° |
| 2026-04-24 23:31 | -35.99516 | -57.78676 | 9057 ft | 102 kts | 345° |
| 2026-04-24 23:31 | -35.98804 | -57.78751 | 9057 ft | 103 kts | 345° |
| 2026-04-24 23:32 | -35.98087 | -57.78825 | 9058 ft | 103 kts | 345° |
| 2026-04-24 23:32 | -35.97372 | -57.78899 | 9059 ft | 103 kts | 345° |
| 2026-04-24 23:32 | -35.96656 | -57.78974 | 9059 ft | 103 kts | 345° |
| 2026-04-24 23:32 | -35.95942 | -57.79049 | 9062 ft | 103 kts | 345° |
| 2026-04-24 23:33 | -35.95228 | -57.79123 | 9064 ft | 103 kts | 345° |
| 2026-04-24 23:33 | -35.94518 | -57.79198 | 9063 ft | 103 kts | 345° |
| 2026-04-24 23:33 | -35.93813 | -57.79271 | 9065 ft | 103 kts | 345° |
| 2026-04-24 23:33 | -35.93113 | -57.79345 | 9066 ft | 103 kts | 345° |
| 2026-04-24 23:34 | -35.92410 | -57.79417 | 9064 ft | 103 kts | 345° |
| 2026-04-24 23:34 | -35.91695 | -57.79492 | 9064 ft | 103 kts | 345° |
| 2026-04-24 23:34 | -35.90981 | -57.79566 | 9065 ft | 103 kts | 345° |
| 2026-04-24 23:34 | -35.90269 | -57.79641 | 9067 ft | 103 kts | 345° |
| 2026-04-24 23:35 | -35.89558 | -57.79715 | 9069 ft | 103 kts | 345° |
| 2026-04-24 23:35 | -35.88847 | -57.79789 | 9068 ft | 103 kts | 345° |
| 2026-04-24 23:35 | -35.88135 | -57.79864 | 9070 ft | 103 kts | 345° |
| 2026-04-24 23:35 | -35.87424 | -57.79937 | 9072 ft | 102 kts | 345° |
| 2026-04-24 23:36 | -35.86722 | -57.80010 | 9070 ft | 103 kts | 345° |
| 2026-04-24 23:36 | -35.86011 | -57.80085 | 9070 ft | 102 kts | 345° |
| 2026-04-24 23:36 | -35.85299 | -57.80159 | 9074 ft | 103 kts | 345° |
| 2026-04-24 23:36 | -35.84586 | -57.80233 | 9070 ft | 103 kts | 345° |
| 2026-04-24 23:37 | -35.83875 | -57.80307 | 9071 ft | 102 kts | 345° |
| 2026-04-24 23:37 | -35.83162 | -57.80382 | 9070 ft | 102 kts | 345° |
| 2026-04-24 23:37 | -35.81749 | -57.80528 | 9076 ft | 102 kts | 345° |
| 2026-04-24 23:38 | -35.81039 | -57.80602 | 9074 ft | 102 kts | 345° |
| 2026-04-24 23:38 | -35.80330 | -57.80676 | 9076 ft | 102 kts | 345° |
| 2026-04-24 23:38 | -35.79620 | -57.80750 | 9074 ft | 102 kts | 346° |
| 2026-04-24 23:38 | -35.78910 | -57.80824 | 9070 ft | 102 kts | 345° |
| 2026-04-24 23:39 | -35.78202 | -57.80897 | 9075 ft | 102 kts | 345° |
| 2026-04-24 23:39 | -35.77494 | -57.80970 | 9075 ft | 102 kts | 345° |
| 2026-04-24 23:39 | -35.76786 | -57.81044 | 9072 ft | 102 kts | 346° |
| 2026-04-24 23:39 | -35.76078 | -57.81118 | 9072 ft | 102 kts | 345° |
| 2026-04-24 23:40 | -35.75370 | -57.81191 | 9075 ft | 102 kts | 346° |
| 2026-04-24 23:40 | -35.74671 | -57.81264 | 9076 ft | 102 kts | 346° |
| 2026-04-24 23:40 | -35.73964 | -57.81338 | 9075 ft | 102 kts | 346° |
| 2026-04-24 23:40 | -35.73257 | -57.81411 | 9073 ft | 102 kts | 346° |
| 2026-04-24 23:41 | -35.72551 | -57.81484 | 9074 ft | 102 kts | 346° |
| 2026-04-24 23:41 | -35.71845 | -57.81557 | 9072 ft | 102 kts | 346° |
| 2026-04-24 23:41 | -35.71136 | -57.81631 | 9073 ft | 102 kts | 346° |
| 2026-04-24 23:41 | -35.70428 | -57.81704 | 9072 ft | 102 kts | 346° |
| 2026-04-24 23:42 | -35.69722 | -57.81778 | 9072 ft | 102 kts | 346° |
| 2026-04-24 23:42 | -35.69015 | -57.81851 | 9072 ft | 102 kts | 346° |
| 2026-04-24 23:42 | -35.68317 | -57.81923 | 9072 ft | 102 kts | 346° |
| 2026-04-24 23:42 | -35.67613 | -57.81996 | 9071 ft | 102 kts | 346° |
| 2026-04-24 23:43 | -35.66905 | -57.82070 | 9072 ft | 102 kts | 346° |
| 2026-04-24 23:43 | -35.66198 | -57.82143 | 9072 ft | 102 kts | 346° |
| 2026-04-24 23:43 | -35.65494 | -57.82216 | 9074 ft | 102 kts | 346° |
| 2026-04-24 23:43 | -35.64790 | -57.82289 | 9074 ft | 102 kts | 346° |
| 2026-04-24 23:44 | -35.64085 | -57.82362 | 9074 ft | 102 kts | 346° |
| 2026-04-24 23:44 | -35.63390 | -57.82433 | 9074 ft | 101 kts | 346° |
| 2026-04-24 23:44 | -35.62687 | -57.82506 | 9074 ft | 101 kts | 346° |
| 2026-04-24 23:44 | -35.61985 | -57.82579 | 9076 ft | 101 kts | 346° |
| 2026-04-24 23:45 | -35.61280 | -57.82652 | 9075 ft | 101 kts | 346° |
| 2026-04-24 23:45 | -35.60577 | -57.82725 | 9076 ft | 101 kts | 346° |
| 2026-04-24 23:45 | -35.59875 | -57.82798 | 9074 ft | 101 kts | 346° |
| 2026-04-24 23:45 | -35.59174 | -57.82870 | 9071 ft | 101 kts | 346° |
| 2026-04-24 23:46 | -35.58474 | -57.82942 | 9076 ft | 101 kts | 346° |
| 2026-04-24 23:46 | -35.57774 | -57.83015 | 9073 ft | 101 kts | 346° |
| 2026-04-24 23:46 | -35.57083 | -57.83087 | 9078 ft | 101 kts | 346° |
| 2026-04-24 23:46 | -35.56384 | -57.83159 | 9072 ft | 101 kts | 346° |
| 2026-04-24 23:47 | -35.55685 | -57.83231 | 9075 ft | 101 kts | 346° |
| 2026-04-24 23:47 | -35.54984 | -57.83304 | 9075 ft | 101 kts | 346° |
| 2026-04-24 23:47 | -35.54281 | -57.83376 | 9076 ft | 101 kts | 347° |
| 2026-04-24 23:47 | -35.53579 | -57.83453 | 9071 ft | 101 kts | 346° |
| 2026-04-24 23:48 | -35.52877 | -57.83534 | 9071 ft | 101 kts | 346° |
| 2026-04-24 23:48 | -35.52175 | -57.83615 | 9072 ft | 101 kts | 346° |
| 2026-04-24 23:48 | -35.51485 | -57.83695 | 9076 ft | 101 kts | 346° |
| 2026-04-24 23:48 | -35.50783 | -57.83775 | 9074 ft | 101 kts | 346° |
| 2026-04-24 23:49 | -35.50081 | -57.83856 | 9072 ft | 101 kts | 346° |
| 2026-04-24 23:49 | -35.49381 | -57.83936 | 9073 ft | 101 kts | 346° |
| 2026-04-24 23:49 | -35.48682 | -57.84016 | 9071 ft | 101 kts | 346° |
| 2026-04-24 23:49 | -35.47983 | -57.84096 | 9072 ft | 101 kts | 346° |
| 2026-04-24 23:50 | -35.47286 | -57.84176 | 9071 ft | 101 kts | 346° |
| 2026-04-24 23:50 | -35.46588 | -57.84257 | 9071 ft | 101 kts | 346° |
| 2026-04-24 23:50 | -35.45896 | -57.84336 | 9069 ft | 101 kts | 346° |
| 2026-04-24 23:50 | -35.45199 | -57.84415 | 9074 ft | 101 kts | 347° |
| 2026-04-24 23:51 | -35.44503 | -57.84496 | 9073 ft | 101 kts | 346° |
| 2026-04-24 23:51 | -35.43805 | -57.84575 | 9072 ft | 101 kts | 346° |
| 2026-04-24 23:51 | -35.43106 | -57.84655 | 9074 ft | 101 kts | 347° |
| 2026-04-24 23:51 | -35.42409 | -57.84735 | 9072 ft | 101 kts | 347° |
| 2026-04-24 23:52 | -35.41710 | -57.84815 | 9073 ft | 101 kts | 347° |
| 2026-04-24 23:52 | -35.41015 | -57.84894 | 9072 ft | 101 kts | 347° |
| 2026-04-24 23:52 | -35.40316 | -57.84975 | 9074 ft | 101 kts | 347° |
| 2026-04-24 23:52 | -35.39626 | -57.85054 | 9074 ft | 100 kts | 346° |
| 2026-04-24 23:53 | -35.38929 | -57.85133 | 9074 ft | 100 kts | 347° |
| 2026-04-24 23:53 | -35.38231 | -57.85213 | 9073 ft | 101 kts | 347° |
| 2026-04-24 23:53 | -35.37534 | -57.85293 | 9072 ft | 101 kts | 347° |
| 2026-04-24 23:53 | -35.36836 | -57.85373 | 9070 ft | 101 kts | 347° |
| 2026-04-24 23:54 | -35.36138 | -57.85452 | 9073 ft | 101 kts | 347° |
| 2026-04-24 23:54 | -35.35440 | -57.85532 | 9071 ft | 101 kts | 347° |
| 2026-04-24 23:54 | -35.34742 | -57.85612 | 9071 ft | 101 kts | 347° |
| 2026-04-24 23:54 | -35.34045 | -57.85691 | 9068 ft | 101 kts | 347° |
| 2026-04-24 23:55 | -35.33346 | -57.85771 | 9069 ft | 101 kts | 347° |
| 2026-04-24 23:55 | -35.32656 | -57.85850 | 9072 ft | 101 kts | 347° |
| 2026-04-24 23:55 | -35.31959 | -57.85930 | 9074 ft | 101 kts | 347° |
| 2026-04-24 23:55 | -35.31261 | -57.86009 | 9074 ft | 101 kts | 347° |
| 2026-04-24 23:56 | -35.30564 | -57.86089 | 9076 ft | 101 kts | 347° |
| 2026-04-24 23:56 | -35.29866 | -57.86169 | 9076 ft | 101 kts | 347° |
| 2026-04-24 23:56 | -35.29170 | -57.86248 | 9076 ft | 101 kts | 347° |
| 2026-04-24 23:56 | -35.28472 | -57.86328 | 9076 ft | 101 kts | 347° |
| 2026-04-24 23:57 | -35.27775 | -57.86408 | 9077 ft | 101 kts | 347° |
| 2026-04-24 23:57 | -35.27077 | -57.86487 | 9078 ft | 101 kts | 347° |
| 2026-04-24 23:57 | -35.26378 | -57.86566 | 9076 ft | 101 kts | 347° |
| 2026-04-24 23:57 | -35.25688 | -57.86645 | 9077 ft | 101 kts | 347° |
| 2026-04-24 23:58 | -35.24989 | -57.86725 | 9077 ft | 101 kts | 347° |
| 2026-04-24 23:58 | -35.24293 | -57.86804 | 9076 ft | 101 kts | 347° |
| 2026-04-24 23:58 | -35.23597 | -57.86884 | 9081 ft | 100 kts | 347° |
| 2026-04-24 23:58 | -35.22900 | -57.86963 | 9078 ft | 100 kts | 347° |
| 2026-04-24 23:59 | -35.22200 | -57.87042 | 9077 ft | 100 kts | 347° |
| 2026-04-24 23:59 | -35.21505 | -57.87122 | 9080 ft | 101 kts | 347° |
| 2026-04-24 23:59 | -35.20808 | -57.87201 | 9080 ft | 101 kts | 347° |
| 2026-04-24 23:59 | -35.20119 | -57.87279 | 9079 ft | 101 kts | 347° |
| 2026-04-25 00:00 | -35.19422 | -57.87359 | 9080 ft | 101 kts | 347° |
| 2026-04-25 00:00 | -35.18724 | -57.87439 | 9082 ft | 101 kts | 347° |
| 2026-04-25 00:00 | -35.18026 | -57.87518 | 9082 ft | 101 kts | 347° |
| 2026-04-25 00:00 | -35.17329 | -57.87597 | 9083 ft | 101 kts | 347° |
| 2026-04-25 00:01 | -35.16631 | -57.87677 | 9084 ft | 101 kts | 348° |
| 2026-04-25 00:01 | -35.15933 | -57.87756 | 9086 ft | 101 kts | 347° |
| 2026-04-25 00:01 | -35.15235 | -57.87835 | 9081 ft | 101 kts | 348° |
| 2026-04-25 00:01 | -35.14537 | -57.87914 | 9081 ft | 101 kts | 348° |
| 2026-04-25 00:02 | -35.13849 | -57.87993 | 9083 ft | 101 kts | 348° |
| 2026-04-25 00:02 | -35.13151 | -57.88072 | 9082 ft | 101 kts | 348° |
| 2026-04-25 00:02 | -35.12453 | -57.88152 | 9086 ft | 101 kts | 348° |
| 2026-04-25 00:02 | -35.11756 | -57.88231 | 9088 ft | 101 kts | 348° |
| 2026-04-25 00:03 | -35.11059 | -57.88310 | 9086 ft | 101 kts | 347° |
| 2026-04-25 00:03 | -35.10361 | -57.88389 | 9088 ft | 101 kts | 348° |
| 2026-04-25 00:03 | -35.09663 | -57.88468 | 9085 ft | 101 kts | 348° |
| 2026-04-25 00:03 | -35.08966 | -57.88547 | 9088 ft | 100 kts | 347° |
| 2026-04-25 00:04 | -35.08269 | -57.88626 | 9087 ft | 100 kts | 348° |
| 2026-04-25 00:04 | -35.07572 | -57.88706 | 9085 ft | 101 kts | 348° |
| 2026-04-25 00:04 | -35.06874 | -57.88785 | 9082 ft | 101 kts | 347° |
| 2026-04-25 00:04 | -35.06186 | -57.88863 | 9082 ft | 101 kts | 347° |
| 2026-04-25 00:05 | -35.05488 | -57.88942 | 9084 ft | 101 kts | 348° |
| 2026-04-25 00:05 | -35.04791 | -57.89022 | 9082 ft | 101 kts | 348° |
| 2026-04-25 00:05 | -35.04093 | -57.89100 | 9088 ft | 101 kts | 348° |
| 2026-04-25 00:05 | -35.03395 | -57.89179 | 9091 ft | 101 kts | 348° |
| 2026-04-25 00:06 | -35.02744 | -57.89254 | 9089 ft | 101 kts | 348° |
| 2026-04-25 00:06 | -35.02048 | -57.89332 | 9088 ft | 101 kts | 348° |
| 2026-04-25 00:06 | -35.01348 | -57.89412 | 9087 ft | 101 kts | 348° |
| 2026-04-25 00:06 | -35.00648 | -57.89491 | 9087 ft | 101 kts | 348° |
| 2026-04-25 00:07 | -34.99950 | -57.89570 | 9086 ft | 101 kts | 348° |
| 2026-04-25 00:07 | -34.99258 | -57.89648 | 9086 ft | 101 kts | 348° |
| 2026-04-25 00:07 | -34.98560 | -57.89727 | 9088 ft | 101 kts | 348° |
| 2026-04-25 00:07 | -34.97863 | -57.89817 | 9085 ft | 100 kts | 342° |
| 2026-04-25 00:08 | -34.97288 | -57.90219 | 9086 ft | 94 kts | 309° |
| 2026-04-25 00:08 | -34.96847 | -57.90801 | 9084 ft | 94 kts | 309° |
| 2026-04-25 00:08 | -34.96397 | -57.91380 | 9085 ft | 94 kts | 309° |
| 2026-04-25 00:08 | -34.95947 | -57.91962 | 9084 ft | 94 kts | 309° |
| 2026-04-25 00:09 | -34.95500 | -57.92539 | 9086 ft | 94 kts | 309° |
| 2026-04-25 00:09 | -34.95048 | -57.93125 | 9084 ft | 94 kts | 309° |
| 2026-04-25 00:09 | -34.94605 | -57.93699 | 9083 ft | 94 kts | 309° |
| 2026-04-25 00:09 | -34.94155 | -57.94282 | 9086 ft | 94 kts | 309° |
| 2026-04-25 00:10 | -34.93730 | -57.94831 | 9088 ft | 94 kts | 309° |
| 2026-04-25 00:10 | -34.93280 | -57.95415 | 9083 ft | 95 kts | 309° |
| 2026-04-25 00:10 | -34.92835 | -57.95991 | 9087 ft | 95 kts | 309° |
| 2026-04-25 00:10 | -34.92375 | -57.96586 | 9085 ft | 94 kts | 309° |
| 2026-04-25 00:11 | -34.91925 | -57.97169 | 9086 ft | 94 kts | 309° |
| 2026-04-25 00:11 | -34.91626 | -57.97555 | 9087 ft | 94 kts | 309° |
| 2026-04-25 00:11 | -34.91207 | -57.98165 | 9088 ft | 93 kts | 295° |
| 2026-04-25 00:11 | -34.90807 | -57.99084 | 9084 ft | 93 kts | 296° |
| 2026-04-25 00:12 | -34.90598 | -57.99540 | 9086 ft | 93 kts | 296° |
| 2026-04-25 00:12 | -34.90280 | -58.00226 | 9086 ft | 93 kts | 296° |
| 2026-04-25 00:12 | -34.89959 | -58.00912 | 9085 ft | 93 kts | 296° |
| 2026-04-25 00:12 | -34.89638 | -58.01597 | 9083 ft | 93 kts | 297° |
| 2026-04-25 00:13 | -34.89316 | -58.02281 | 9083 ft | 93 kts | 297° |
| 2026-04-25 00:13 | -34.88994 | -58.02964 | 9086 ft | 93 kts | 296° |
| 2026-04-25 00:13 | -34.88672 | -58.03645 | 9083 ft | 93 kts | 297° |
| 2026-04-25 00:13 | -34.88350 | -58.04327 | 9086 ft | 93 kts | 297° |
| 2026-04-25 00:14 | -34.88028 | -58.05010 | 9082 ft | 93 kts | 297° |
| 2026-04-25 00:14 | -34.87705 | -58.05693 | 9081 ft | 93 kts | 297° |
| 2026-04-25 00:14 | -34.87382 | -58.06376 | 9083 ft | 93 kts | 297° |
| 2026-04-25 00:14 | -34.87063 | -58.07051 | 9081 ft | 93 kts | 297° |
| 2026-04-25 00:15 | -34.86740 | -58.07734 | 9080 ft | 93 kts | 297° |
| 2026-04-25 00:15 | -34.86417 | -58.08416 | 9081 ft | 93 kts | 297° |
| 2026-04-25 00:15 | -34.86094 | -58.09098 | 9077 ft | 93 kts | 297° |
| 2026-04-25 00:15 | -34.85771 | -58.09781 | 9078 ft | 93 kts | 297° |
| 2026-04-25 00:16 | -34.85449 | -58.10463 | 9076 ft | 93 kts | 297° |
| 2026-04-25 00:16 | -34.85125 | -58.11147 | 9078 ft | 93 kts | 297° |
| 2026-04-25 00:16 | -34.84801 | -58.11830 | 9077 ft | 93 kts | 297° |
| 2026-04-25 00:16 | -34.84482 | -58.12505 | 9077 ft | 93 kts | 297° |
| 2026-04-25 00:17 | -34.84158 | -58.13189 | 9077 ft | 93 kts | 297° |
| 2026-04-25 00:17 | -34.83834 | -58.13872 | 9077 ft | 93 kts | 297° |
| 2026-04-25 00:17 | -34.83509 | -58.14557 | 9077 ft | 93 kts | 297° |
| 2026-04-25 00:17 | -34.83185 | -58.15241 | 9075 ft | 93 kts | 297° |
| 2026-04-25 00:18 | -34.82861 | -58.15926 | 9076 ft | 93 kts | 297° |
| 2026-04-25 00:18 | -34.82536 | -58.16611 | 9073 ft | 93 kts | 297° |
| 2026-04-25 00:18 | -34.82210 | -58.17297 | 9075 ft | 93 kts | 297° |
| 2026-04-25 00:18 | -34.81886 | -58.17981 | 9076 ft | 93 kts | 297° |
| 2026-04-25 00:19 | -34.81565 | -58.18659 | 9075 ft | 93 kts | 297° |
| 2026-04-25 00:19 | -34.81240 | -58.19342 | 9068 ft | 93 kts | 297° |
| 2026-04-25 00:19 | -34.80914 | -58.20028 | 9069 ft | 93 kts | 297° |
| 2026-04-25 00:19 | -34.80589 | -58.20713 | 9066 ft | 93 kts | 297° |
| 2026-04-25 00:20 | -34.80254 | -58.21418 | 8979 ft | 100 kts | 297° |
| 2026-04-25 00:20 | -34.79899 | -58.22163 | 8868 ft | 103 kts | 297° |
| 2026-04-25 00:20 | -34.79537 | -58.22923 | 8762 ft | 104 kts | 297° |
| 2026-04-25 00:20 | -34.79174 | -58.23688 | 8654 ft | 104 kts | 297° |
| 2026-04-25 00:21 | -34.78809 | -58.24455 | 8547 ft | 105 kts | 297° |
| 2026-04-25 00:21 | -34.78444 | -58.25222 | 8435 ft | 105 kts | 297° |
| 2026-04-25 00:21 | -34.78078 | -58.25994 | 8329 ft | 106 kts | 297° |
| 2026-04-25 00:21 | -34.77714 | -58.26759 | 8218 ft | 106 kts | 297° |
| 2026-04-25 00:22 | -34.77340 | -58.27543 | 8105 ft | 106 kts | 298° |
| 2026-04-25 00:22 | -34.76975 | -58.28312 | 7995 ft | 106 kts | 298° |
| 2026-04-25 00:22 | -34.76604 | -58.29092 | 7885 ft | 106 kts | 298° |
| 2026-04-25 00:22 | -34.76232 | -58.29872 | 7762 ft | 107 kts | 298° |
| 2026-04-25 00:23 | -34.75858 | -58.30658 | 7639 ft | 108 kts | 298° |
| 2026-04-25 00:23 | -34.75476 | -58.31460 | 7466 ft | 111 kts | 298° |
| 2026-04-25 00:23 | -34.75084 | -58.32281 | 7289 ft | 112 kts | 298° |
| 2026-04-25 00:23 | -34.74691 | -58.33106 | 7108 ft | 113 kts | 298° |
| 2026-04-25 00:24 | -34.74298 | -58.33930 | 6928 ft | 113 kts | 298° |
| 2026-04-25 00:24 | -34.73910 | -58.34746 | 6755 ft | 113 kts | 299° |
| 2026-04-25 00:24 | -34.73515 | -58.35573 | 6577 ft | 113 kts | 299° |
| 2026-04-25 00:24 | -34.73119 | -58.36404 | 6394 ft | 114 kts | 299° |
| 2026-04-25 00:25 | -34.72720 | -58.37241 | 6206 ft | 114 kts | 299° |
| 2026-04-25 00:25 | -34.72321 | -58.38078 | 6010 ft | 114 kts | 300° |
| 2026-04-25 00:25 | -34.71923 | -58.38912 | 5818 ft | 114 kts | 300° |
| 2026-04-25 00:25 | -34.71533 | -58.39729 | 5629 ft | 112 kts | 300° |
| 2026-04-25 00:26 | -34.71146 | -58.40538 | 5450 ft | 110 kts | 300° |
| 2026-04-25 00:26 | -34.70762 | -58.41344 | 5254 ft | 110 kts | 301° |
| 2026-04-25 00:26 | -34.70378 | -58.42147 | 5055 ft | 110 kts | 301° |
| 2026-04-25 00:26 | -34.69993 | -58.42952 | 4867 ft | 110 kts | 301° |
| 2026-04-25 00:27 | -34.69608 | -58.43759 | 4667 ft | 110 kts | 302° |
| 2026-04-25 00:27 | -34.69222 | -58.44565 | 4468 ft | 111 kts | 302° |
| 2026-04-25 00:27 | -34.68836 | -58.45374 | 4268 ft | 110 kts | 302° |
| 2026-04-25 00:27 | -34.68450 | -58.46181 | 4072 ft | 110 kts | 302° |
| 2026-04-25 00:28 | -34.68065 | -58.46985 | 3879 ft | 110 kts | 303° |
| 2026-04-25 00:28 | -34.67683 | -58.47784 | 3702 ft | 107 kts | 303° |
| 2026-04-25 00:28 | -34.67311 | -58.48565 | 3574 ft | 106 kts | 303° |
| 2026-04-25 00:28 | -34.66939 | -58.49341 | 3447 ft | 106 kts | 303° |
| 2026-04-25 00:29 | -34.66567 | -58.50118 | 3324 ft | 106 kts | 303° |
| 2026-04-25 00:29 | -34.66197 | -58.50890 | 3194 ft | 106 kts | 304° |
| 2026-04-25 00:29 | -34.65832 | -58.51655 | 3073 ft | 106 kts | 304° |
| 2026-04-25 00:29 | -34.65465 | -58.52422 | 3001 ft | 102 kts | 304° |
| 2026-04-25 00:30 | -34.65116 | -58.53152 | 2991 ft | 99 kts | 304° |
| 2026-04-25 00:30 | -34.64774 | -58.53863 | 2991 ft | 96 kts | 306° |
| 2026-04-25 00:30 | -34.64409 | -58.54563 | 2909 ft | 102 kts | 306° |
| 2026-04-25 00:30 | -34.64023 | -58.55307 | 2785 ft | 105 kts | 306° |
| 2026-04-25 00:31 | -34.63632 | -58.56062 | 2667 ft | 106 kts | 306° |
| 2026-04-25 00:31 | -34.63242 | -58.56824 | 2550 ft | 106 kts | 306° |
| 2026-04-25 00:31 | -34.62857 | -58.57577 | 2504 ft | 101 kts | 306° |
| 2026-04-25 00:31 | -34.62490 | -58.58291 | 2497 ft | 99 kts | 306° |
| 2026-04-25 00:32 | -34.62127 | -58.58995 | 2489 ft | 98 kts | 306° |
| 2026-04-25 00:32 | -34.61769 | -58.59691 | 2491 ft | 97 kts | 306° |
| 2026-04-25 00:32 | -34.61411 | -58.60387 | 2492 ft | 97 kts | 306° |
| 2026-04-25 00:32 | -34.61057 | -58.61072 | 2490 ft | 97 kts | 307° |
| 2026-04-25 00:33 | -34.60700 | -58.61763 | 2493 ft | 96 kts | 307° |
| 2026-04-25 00:33 | -34.60344 | -58.62453 | 2491 ft | 97 kts | 306° |
| 2026-04-25 00:33 | -34.59986 | -58.63147 | 2491 ft | 97 kts | 306° |
| 2026-04-25 00:33 | -34.59632 | -58.63836 | 2492 ft | 96 kts | 306° |
| 2026-04-25 00:34 | -34.59276 | -58.64527 | 2493 ft | 96 kts | 307° |
| 2026-04-25 00:34 | -34.58920 | -58.65217 | 2490 ft | 96 kts | 306° |
| 2026-04-25 00:34 | -34.58570 | -58.65895 | 2491 ft | 96 kts | 306° |
| 2026-04-25 00:34 | -34.58215 | -58.66582 | 2490 ft | 96 kts | 306° |
| 2026-04-25 00:35 | -34.57862 | -58.67266 | 2490 ft | 96 kts | 307° |
| 2026-04-25 00:35 | -34.57510 | -58.67950 | 2491 ft | 96 kts | 306° |
| 2026-04-25 00:35 | -34.57156 | -58.68633 | 2492 ft | 96 kts | 306° |
| 2026-04-25 00:35 | -34.56802 | -58.69319 | 2491 ft | 96 kts | 306° |
| 2026-04-25 00:36 | -34.56445 | -58.69999 | 2491 ft | 95 kts | 311° |
| 2026-04-25 00:36 | -34.55912 | -58.70436 | 2447 ft | 96 kts | 345° |
| 2026-04-25 00:36 | -34.55237 | -58.70422 | 2331 ft | 101 kts | 17° |
| 2026-04-25 00:36 | -34.54662 | -58.69922 | 2218 ft | 104 kts | 42° |
| 2026-04-25 00:37 | -34.54146 | -58.69306 | 2109 ft | 104 kts | 40° |
| 2026-04-25 00:37 | -34.53623 | -58.68692 | 2007 ft | 104 kts | 41° |
| 2026-04-25 00:37 | -34.53098 | -58.68073 | 1855 ft | 105 kts | 41° |
| 2026-04-25 00:37 | -34.52605 | -58.67491 | 1678 ft | 96 kts | 41° |
| 2026-04-25 00:38 | -34.52128 | -58.66931 | 1438 ft | 98 kts | 42° |
| 2026-04-25 00:38 | -34.51649 | -58.66364 | 1204 ft | 90 kts | 43° |
| 2026-04-25 00:38 | -34.51250 | -58.65897 | 1140 ft | 74 kts | 41° |
| 2026-04-25 00:38 | -34.50864 | -58.65458 | 1059 ft | 75 kts | 43° |
| 2026-04-25 00:39 | -34.50499 | -58.65031 | 1063 ft | 72 kts | 43° |
| 2026-04-25 00:39 | -34.50139 | -58.64609 | 1050 ft | 71 kts | 42° |
| 2026-04-25 00:39 | -34.49788 | -58.64191 | 1073 ft | 73 kts | 41° |
| 2026-04-25 00:39 | -34.49386 | -58.63712 | 984 ft | 86 kts | 43° |
| 2026-04-25 00:40 | -34.48950 | -58.63195 | 869 ft | 89 kts | 44° |
| 2026-04-25 00:40 | -34.48501 | -58.62667 | 749 ft | 91 kts | 44° |
| 2026-04-25 00:40 | -34.48048 | -58.62132 | 630 ft | 89 kts | 45° |
| 2026-04-25 00:40 | -34.47635 | -58.61646 | 517 ft | 75 kts | 45° |
| 2026-04-25 00:41 | -34.47297 | -58.61253 | 397 ft | 64 kts | 45° |
| 2026-04-25 00:41 | -34.46966 | -58.60872 | 310 ft | 66 kts | 44° |
| 2026-04-25 00:41 | -34.46632 | -58.60483 | 257 ft | 67 kts | 46° |
| 2026-04-25 00:41 | -34.46301 | -58.60089 | 172 ft | 68 kts | 45° |
| 2026-04-25 00:42 | -34.45967 | -58.59693 | 54 ft | 66 kts | 46° |
| 2026-04-25 00:42 | -34.45718 | -58.59397 | 22 ft | 24 kts | 45° |
| 2026-04-25 00:42 | -34.45681 | -58.59312 | 22 ft | 6 kts | 130° |
| 2026-04-25 00:42 | -34.45704 | -58.59288 | 22 ft | 3 kts | 147° |
| 2026-04-25 00:43 | -34.45725 | -58.59274 | 22 ft | 6 kts | 151° |
| 2026-04-25 00:43 | -34.45751 | -58.59255 | 22 ft | 3 kts | 150° |
| 2026-04-25 00:43 | -34.45796 | -58.59224 | 22 ft | 11 kts | 151° |
| 2026-04-25 00:43 | -34.45843 | -58.59180 | 22 ft | 7 kts | 89° |
| 2026-04-25 00:44 | -34.45830 | -58.59140 | 22 ft | 4 kts | 62° |
| 2026-04-25 00:44 | -34.45823 | -58.59124 | 22 ft | 0 kts | 61° |
| 2026-04-25 00:44 | -34.45812 | -58.59099 | 22 ft | 18 kts | 63° |
| 2026-04-25 00:44 | -34.45720 | -58.58882 | 22 ft | 32 kts | 62° |
| 2026-04-25 00:45 | -34.45626 | -58.58665 | 22 ft | 25 kts | 62° |
| 2026-04-25 00:45 | -34.45561 | -58.58513 | 22 ft | 17 kts | 62° |
| 2026-04-25 00:45 | -34.45513 | -58.58404 | 22 ft | 14 kts | 59° |
| 2026-04-25 00:45 | -34.45525 | -58.58364 | 22 ft | 6 kts | 154° |
| 2026-04-25 00:46 | -34.45546 | -58.58361 | 22 ft | 0 kts | 199° |